createdAt,value
2022-10-05T00:02:13.877Z,6.69
2022-10-05T00:04:40.360Z,6.63
2022-10-05T00:07:13.499Z,6.58
2022-10-05T00:09:40.324Z,6.56
2022-10-05T00:12:16.858Z,6.55
2022-10-05T00:14:44.167Z,6.55
2022-10-05T00:17:14.220Z,6.55
2022-10-05T00:19:42.634Z,6.58
2022-10-05T00:22:08.964Z,6.58
2022-10-05T00:24:35.742Z,6.60
2022-10-05T00:27:12.637Z,6.62
2022-10-05T00:29:39.199Z,6.63
2022-10-05T00:32:05.610Z,6.63
2022-10-05T00:34:35.125Z,6.57
2022-10-05T00:37:01.501Z,6.59
2022-10-05T00:39:29.943Z,6.62
2022-10-05T00:41:59.350Z,6.62
2022-10-05T00:44:25.677Z,6.49
2022-10-05T00:47:10.845Z,6.39
2022-10-05T00:50:00.262Z,6.30
2022-10-05T00:52:32.613Z,6.37
2022-10-05T00:54:59.028Z,6.37
2022-10-05T00:57:34.703Z,6.39
2022-10-05T01:00:04.077Z,6.44
2022-10-05T01:02:35.822Z,6.45
2022-10-05T01:05:10.786Z,6.44
2022-10-05T01:07:59.935Z,6.44
2022-10-05T01:10:26.280Z,6.41
2022-10-05T01:12:55.754Z,6.43
2022-10-05T01:15:30.669Z,6.44
2022-10-05T01:18:07.398Z,6.48
2022-10-05T01:20:36.567Z,6.53
2022-10-05T01:23:09.092Z,6.53
2022-10-05T01:25:58.947Z,6.50
2022-10-05T01:28:29.684Z,6.44
2022-10-05T01:31:09.620Z,6.46
2022-10-05T01:33:43.611Z,6.47
2022-10-05T01:36:14.494Z,6.43
2022-10-05T01:38:47.047Z,6.37
2022-10-05T01:41:27.250Z,6.35
2022-10-05T01:44:03.001Z,6.34
2022-10-05T01:46:29.339Z,6.33
2022-10-05T01:49:14.560Z,6.34
2022-10-05T01:51:40.952Z,6.30
2022-10-05T01:54:30.486Z,6.30
2022-10-05T01:57:02.651Z,6.35
2022-10-05T01:59:41.172Z,6.34
2022-10-05T02:02:11.094Z,6.31
2022-10-05T02:05:01.413Z,6.33
2022-10-05T02:07:40.402Z,6.34
2022-10-05T02:10:12.750Z,6.36
2022-10-05T02:12:39.848Z,6.38
2022-10-05T02:15:27.278Z,6.36
2022-10-05T02:17:56.934Z,6.39
2022-10-05T02:20:28.827Z,6.38
2022-10-05T02:22:58.277Z,6.38
2022-10-05T02:25:30.266Z,6.41
2022-10-05T02:28:00.084Z,6.36
2022-10-05T02:30:27.783Z,6.29
2022-10-05T02:33:01.520Z,6.17
2022-10-05T02:35:28.271Z,6.17
2022-10-05T02:38:09.074Z,6.24
2022-10-05T02:40:51.590Z,6.22
2022-10-05T02:43:23.735Z,6.17
2022-10-05T02:45:53.763Z,6.17
2022-10-05T02:48:38.718Z,6.16
2022-10-05T02:51:12.931Z,6.10
2022-10-05T02:53:55.375Z,6.07
2022-10-05T02:56:46.884Z,6.05
2022-10-05T02:59:16.276Z,6.02
2022-10-05T03:01:48.831Z,6.00
2022-10-05T03:04:34.294Z,6.02
2022-10-05T03:07:09.363Z,6.00
2022-10-05T03:09:42.379Z,5.96
2022-10-05T03:12:25.852Z,5.94
2022-10-05T03:14:52.257Z,5.88
2022-10-05T03:17:25.302Z,5.82
2022-10-05T03:20:07.166Z,5.81
2022-10-05T03:22:52.232Z,5.80
2022-10-05T03:25:24.717Z,5.86
2022-10-05T03:28:03.842Z,5.86
2022-10-05T03:30:35.179Z,5.87
2022-10-05T03:33:07.732Z,5.88
2022-10-05T03:35:46.362Z,5.90
2022-10-05T03:38:17.058Z,5.87
2022-10-05T03:40:50.575Z,5.83
2022-10-05T03:43:29.276Z,5.79
2022-10-05T03:46:08.737Z,5.74
2022-10-05T03:48:44.477Z,5.67
2022-10-05T03:51:31.136Z,5.60
2022-10-05T03:54:00.805Z,5.54
2022-10-05T03:56:36.362Z,5.51
2022-10-05T03:59:12.138Z,5.47
2022-10-05T04:01:58.952Z,5.50
2022-10-05T04:04:40.853Z,5.55
2022-10-05T04:07:11.909Z,5.55
2022-10-05T04:09:43.006Z,5.57
2022-10-05T04:12:21.348Z,5.55
2022-10-05T04:14:50.895Z,5.51
2022-10-05T04:17:18.543Z,5.48
2022-10-05T04:19:51.098Z,5.50
2022-10-05T04:22:21.333Z,5.51
2022-10-05T04:25:01.512Z,5.52
2022-10-05T04:27:39.287Z,5.55
2022-10-05T04:30:13.984Z,5.57
2022-10-05T04:32:44.979Z,5.58
2022-10-05T04:35:26.299Z,5.58
2022-10-05T04:37:52.638Z,5.62
2022-10-05T04:40:34.651Z,5.59
2022-10-05T04:43:08.567Z,5.56
2022-10-05T04:45:37.759Z,5.58
2022-10-05T04:48:22.955Z,5.59
2022-10-05T04:51:12.751Z,5.59
2022-10-05T04:53:48.227Z,5.61
2022-10-05T04:56:18.115Z,5.58
2022-10-05T04:58:56.779Z,5.54
2022-10-05T05:01:41.145Z,5.38
2022-10-05T05:04:10.607Z,5.26
2022-10-05T05:06:52.356Z,5.15
2022-10-05T05:09:27.872Z,5.08
2022-10-05T05:12:09.473Z,5.06
2022-10-05T05:14:51.196Z,5.07
2022-10-05T05:17:25.144Z,5.10
2022-10-05T05:19:57.603Z,5.19
2022-10-05T05:22:32.837Z,5.29
2022-10-05T05:25:18.141Z,5.31
2022-10-05T05:27:55.159Z,5.33
2022-10-05T05:30:23.403Z,5.34
2022-10-05T05:33:08.539Z,5.37
2022-10-05T05:35:44.279Z,5.28
2022-10-05T05:38:29.706Z,5.25
2022-10-05T05:40:59.084Z,5.27
2022-10-05T05:43:28.536Z,5.20
2022-10-05T05:46:00.512Z,5.20
2022-10-05T05:48:31.684Z,5.23
2022-10-05T05:51:02.666Z,5.17
2022-10-05T05:53:35.915Z,4.97
2022-10-05T05:56:12.762Z,4.89
2022-10-05T05:58:51.197Z,4.92
2022-10-05T06:01:32.170Z,5.05
2022-10-05T06:04:11.457Z,5.11
2022-10-05T06:06:40.308Z,5.19
2022-10-05T06:09:15.586Z,5.12
2022-10-05T06:11:45.554Z,5.08
2022-10-05T06:14:15.700Z,5.16
2022-10-05T06:16:46.417Z,5.24
2022-10-05T06:19:17.736Z,5.24
2022-10-05T06:21:55.158Z,5.27
2022-10-05T06:24:51.005Z,5.31
2022-10-05T06:27:37.694Z,5.35
2022-10-05T06:30:13.373Z,5.32
2022-10-05T06:32:39.746Z,5.31
2022-10-05T06:35:24.657Z,5.28
2022-10-05T06:37:51.024Z,5.09
2022-10-05T06:40:20.442Z,4.93
2022-10-05T06:43:05.485Z,5.00
2022-10-05T06:45:47.162Z,5.10
2022-10-05T06:48:33.332Z,5.24
2022-10-05T06:51:04.372Z,5.16
2022-10-05T06:53:36.671Z,5.12
2022-10-05T06:56:07.579Z,5.09
2022-10-05T06:58:45.980Z,5.02
2022-10-05T07:01:31.004Z,4.97
2022-10-05T07:04:06.926Z,5.11
2022-10-05T07:06:33.259Z,5.27
2022-10-05T07:09:16.706Z,5.39
2022-10-05T07:11:49.059Z,5.50
2022-10-05T07:14:23.864Z,5.58
2022-10-05T07:17:02.610Z,5.62
2022-10-05T07:19:34.858Z,5.73
2022-10-05T07:22:34.487Z,5.73
2022-10-05T07:25:16.677Z,5.76
2022-10-05T07:28:03.367Z,5.79
2022-10-05T07:30:30.556Z,5.80
2022-10-05T07:33:01.701Z,5.87
2022-10-05T07:36:05.481Z,5.96
2022-10-05T07:38:50.459Z,6.02
2022-10-05T07:41:23.901Z,6.13
2022-10-05T07:44:03.049Z,6.21
2022-10-05T07:46:32.817Z,6.26
2022-10-05T07:49:17.644Z,6.30
2022-10-05T07:52:10.612Z,6.41
2022-10-05T07:54:40.491Z,6.45
2022-10-05T07:57:19.498Z,6.49
2022-10-05T08:00:06.225Z,6.52
2022-10-05T08:02:35.319Z,6.57
2022-10-05T08:05:20.155Z,6.65
2022-10-05T08:07:47.723Z,6.75
2022-10-05T08:10:14.363Z,6.85
2022-10-05T08:12:54.535Z,6.95
2022-10-05T08:15:23.693Z,7.11
2022-10-05T08:18:16.620Z,7.18
2022-10-05T08:21:01.218Z,7.34
2022-10-05T08:23:30.606Z,7.52
2022-10-05T08:25:56.985Z,7.67
2022-10-05T08:28:30.951Z,7.77
2022-10-05T08:31:09.210Z,7.85
2022-10-05T08:33:51.645Z,7.94
2022-10-05T08:36:21.770Z,8.07
2022-10-05T08:38:50.247Z,8.17
2022-10-05T08:41:22.911Z,8.30
2022-10-05T08:43:49.262Z,8.46
2022-10-05T08:46:18.787Z,8.60
2022-10-05T08:48:54.504Z,8.69
2022-10-05T08:51:40.226Z,8.79
2022-10-05T08:54:12.606Z,8.89
2022-10-05T08:56:45.571Z,8.99
2022-10-05T08:59:15.110Z,9.14
2022-10-05T09:01:59.796Z,9.26
2022-10-05T09:04:49.395Z,9.39
2022-10-05T09:07:31.828Z,9.46
2022-10-05T09:10:01.532Z,9.52
2022-10-05T09:12:47.634Z,9.63
2022-10-05T09:15:37.057Z,9.72
2022-10-05T09:18:12.598Z,9.79
2022-10-05T09:20:52.880Z,9.91
2022-10-05T09:23:22.272Z,10.00
2022-10-05T09:26:07.550Z,10.10
2022-10-05T09:29:04.728Z,10.15
2022-10-05T09:31:49.857Z,10.25
2022-10-05T09:34:34.983Z,10.44
2022-10-05T09:37:17.166Z,10.57
2022-10-05T09:39:43.531Z,10.71
2022-10-05T09:42:28.909Z,10.82
2022-10-05T09:45:27.825Z,10.96
2022-10-05T09:48:03.469Z,11.10
2022-10-05T09:50:29.835Z,11.20
2022-10-05T09:53:05.151Z,11.37
2022-10-05T09:55:50.156Z,11.44
2022-10-05T09:58:33.386Z,11.57
2022-10-05T10:01:15.987Z,11.70
2022-10-05T10:04:11.951Z,11.82
2022-10-05T10:06:54.639Z,11.91
2022-10-05T10:09:21.016Z,12.05
2022-10-05T10:12:01.561Z,12.15
2022-10-05T10:14:51.481Z,12.36
2022-10-05T10:17:30.446Z,12.62
2022-10-05T10:19:56.804Z,12.76
2022-10-05T10:22:43.219Z,12.79
2022-10-05T10:25:28.853Z,12.91
2022-10-05T10:28:25.588Z,13.01
2022-10-05T10:31:10.289Z,13.11
2022-10-05T10:33:52.486Z,13.10
2022-10-05T10:36:34.033Z,13.17
2022-10-05T10:39:21.297Z,13.23
2022-10-05T10:41:50.537Z,13.34
2022-10-05T10:44:34.501Z,13.42
2022-10-05T10:47:19.847Z,13.48
2022-10-05T10:49:52.338Z,13.52
2022-10-05T10:52:34.140Z,13.56
2022-10-05T10:55:04.404Z,13.60
2022-10-05T10:57:49.079Z,13.62
2022-10-05T11:00:22.336Z,13.65
2022-10-05T11:02:48.846Z,13.65
2022-10-05T11:05:18.390Z,13.68
2022-10-05T11:07:47.744Z,13.70
2022-10-05T11:10:18.271Z,13.66
2022-10-05T11:12:47.629Z,13.61
2022-10-05T11:15:32.961Z,13.61
2022-10-05T11:18:10.323Z,13.51
2022-10-05T11:20:49.007Z,13.50
2022-10-05T11:23:15.359Z,13.44
2022-10-05T11:25:44.278Z,13.39
2022-10-05T11:28:34.781Z,13.38
2022-10-05T11:31:10.335Z,13.35
2022-10-05T11:33:55.431Z,13.24
2022-10-05T11:36:49.528Z,13.23
2022-10-05T11:39:18.723Z,13.26
2022-10-05T11:42:05.550Z,13.33
2022-10-05T11:44:41.322Z,13.31
2022-10-05T11:47:26.003Z,13.18
2022-10-05T11:49:55.566Z,13.02
2022-10-05T11:52:42.288Z,12.93
2022-10-05T11:55:19.321Z,12.91
2022-10-05T11:57:49.216Z,12.85
2022-10-05T12:00:18.904Z,12.73
2022-10-05T12:03:09.426Z,12.69
2022-10-05T12:05:51.298Z,12.70
2022-10-05T12:08:17.641Z,12.71
2022-10-05T12:10:51.646Z,12.78
2022-10-05T12:13:33.670Z,12.78
2022-10-05T12:16:15.965Z,12.78
2022-10-05T12:18:53.514Z,12.80
2022-10-05T12:21:33.069Z,12.77
2022-10-05T12:24:07.350Z,12.85
2022-10-05T12:26:41.038Z,12.94
2022-10-05T12:29:13.262Z,13.03
2022-10-05T12:31:49.511Z,13.11
2022-10-05T12:34:19.001Z,13.07
2022-10-05T12:37:09.523Z,13.10
2022-10-05T12:39:43.448Z,13.19
2022-10-05T12:42:20.866Z,13.06
2022-10-05T12:44:59.964Z,12.98
2022-10-05T12:47:58.787Z,12.94
2022-10-05T12:50:34.517Z,13.04
2022-10-05T12:53:19.525Z,13.11
2022-10-05T12:55:45.859Z,13.22
2022-10-05T12:58:15.240Z,13.26
2022-10-05T13:00:48.345Z,13.27
2022-10-05T13:03:14.743Z,13.23
2022-10-05T13:06:03.464Z,13.17
2022-10-05T13:08:29.831Z,13.09
2022-10-05T13:11:21.189Z,13.12
2022-10-05T13:14:08.631Z,13.10
2022-10-05T13:16:41.329Z,13.07
2022-10-05T13:19:21.298Z,13.13
2022-10-05T13:22:02.705Z,13.21
2022-10-05T13:24:29.170Z,13.25
2022-10-05T13:27:01.492Z,13.28
2022-10-05T13:29:27.870Z,13.31
2022-10-05T13:31:57.114Z,13.29
2022-10-05T13:34:38.633Z,13.25
2022-10-05T13:37:14.273Z,13.19
2022-10-05T13:39:49.874Z,13.22
2022-10-05T13:42:28.601Z,13.20
2022-10-05T13:45:17.072Z,13.24
2022-10-05T13:48:02.288Z,13.19
2022-10-05T13:50:38.459Z,13.18
2022-10-05T13:53:19.576Z,13.18
2022-10-05T13:55:47.636Z,13.19
2022-10-05T13:58:23.104Z,13.13
2022-10-05T14:00:58.593Z,13.08
2022-10-05T14:03:25.036Z,13.04
2022-10-05T14:05:57.441Z,13.05
2022-10-05T14:08:28.705Z,13.01
2022-10-05T14:10:56.928Z,13.00
2022-10-05T14:13:29.225Z,12.98
2022-10-05T14:15:57.262Z,12.98
2022-10-05T14:18:24.886Z,12.98
2022-10-05T14:20:58.179Z,12.89
2022-10-05T14:23:25.585Z,12.76
2022-10-05T14:25:55.169Z,12.71
2022-10-05T14:28:24.134Z,12.62
2022-10-05T14:31:00.281Z,12.55
2022-10-05T14:33:34.942Z,12.58
2022-10-05T14:36:02.495Z,12.66
2022-10-05T14:38:31.856Z,12.70
2022-10-05T14:41:18.400Z,12.74
2022-10-05T14:43:57.194Z,12.70
2022-10-05T14:46:29.005Z,12.67
2022-10-05T14:49:14.221Z,12.66
2022-10-05T14:51:42.250Z,12.63
2022-10-05T14:54:17.974Z,12.63
2022-10-05T14:57:03.246Z,12.66
2022-10-05T14:59:39.466Z,12.60
2022-10-05T15:02:08.124Z,12.59
2022-10-05T15:04:44.207Z,12.50
2022-10-05T15:07:21.460Z,12.48
2022-10-05T15:10:00.261Z,12.44
2022-10-05T15:12:31.974Z,12.44
2022-10-05T15:15:11.388Z,12.33
2022-10-05T15:17:52.579Z,12.24
2022-10-05T15:20:28.635Z,12.23
2022-10-05T15:23:14.938Z,12.18
2022-10-05T15:25:51.844Z,12.15
2022-10-05T15:28:18.246Z,12.20
2022-10-05T15:30:52.760Z,12.22
2022-10-05T15:33:33.787Z,12.26
2022-10-05T15:36:00.542Z,12.26
2022-10-05T15:38:29.460Z,12.28
2022-10-05T15:40:58.844Z,12.26
2022-10-05T15:43:26.515Z,12.25
2022-10-05T15:45:54.008Z,12.27
2022-10-05T15:48:20.970Z,12.26
2022-10-05T15:50:56.924Z,12.22
2022-10-05T15:53:28.083Z,12.23
2022-10-05T15:55:54.720Z,12.17
2022-10-05T15:58:31.369Z,12.16
2022-10-05T16:01:02.432Z,12.14
2022-10-05T16:03:35.013Z,12.13
2022-10-05T16:06:39.188Z,12.10
2022-10-05T16:09:17.610Z,12.06
2022-10-05T16:11:47.146Z,12.06
2022-10-05T16:14:27.925Z,12.06
2022-10-05T16:17:02.515Z,12.03
2022-10-05T16:19:47.492Z,12.04
2022-10-05T16:22:33.242Z,12.01
2022-10-05T16:25:07.235Z,11.98
2022-10-05T16:27:52.664Z,11.97
2022-10-05T16:30:20.985Z,11.90
2022-10-05T16:33:06.384Z,11.89
2022-10-05T16:35:46.081Z,11.88
2022-10-05T16:38:21.765Z,11.85
2022-10-05T16:40:51.378Z,11.77
2022-10-05T16:43:27.701Z,11.72
2022-10-05T16:46:10.380Z,11.73
2022-10-05T16:48:52.171Z,11.69
2022-10-05T16:51:33.814Z,11.67
2022-10-05T16:54:18.087Z,11.64
2022-10-05T16:56:48.150Z,11.62
2022-10-05T16:59:29.727Z,11.57
2022-10-05T17:02:09.065Z,11.52
2022-10-05T17:04:40.328Z,11.49
2022-10-05T17:07:14.890Z,11.47
2022-10-05T17:09:46.843Z,11.37
2022-10-05T17:12:16.334Z,11.28
2022-10-05T17:15:00.806Z,11.25
2022-10-05T17:17:33.286Z,11.24
2022-10-05T17:20:15.656Z,11.18
2022-10-05T17:22:52.390Z,11.16
2022-10-05T17:25:35.083Z,11.15
2022-10-05T17:28:21.119Z,11.13
2022-10-05T17:30:50.458Z,10.98
2022-10-05T17:33:24.976Z,10.96
2022-10-05T17:36:04.619Z,10.92
2022-10-05T17:38:31.034Z,10.85
2022-10-05T17:41:00.404Z,10.80
2022-10-05T17:43:27.675Z,10.75
2022-10-05T17:45:56.089Z,10.69
2022-10-05T17:48:42.923Z,10.68
2022-10-05T17:51:35.018Z,10.61
2022-10-05T17:54:36.377Z,10.63
2022-10-05T17:57:02.901Z,10.60
2022-10-05T17:59:38.607Z,10.54
2022-10-05T18:02:20.067Z,10.51
2022-10-05T18:05:12.724Z,10.47
2022-10-05T18:07:40.176Z,10.43
2022-10-05T18:10:09.545Z,10.36
2022-10-05T18:12:41.636Z,10.34
2022-10-05T18:15:07.971Z,10.26
2022-10-05T18:17:37.555Z,10.23
2022-10-05T18:20:17.998Z,10.22
2022-10-05T18:22:46.520Z,10.24
2022-10-05T18:25:18.860Z,10.23
2022-10-05T18:27:45.192Z,10.20
2022-10-05T18:30:20.779Z,10.17
2022-10-05T18:33:07.861Z,10.15
2022-10-05T18:35:45.598Z,10.13
2022-10-05T18:38:24.707Z,10.10
2022-10-05T18:41:03.624Z,10.10
2022-10-05T18:43:36.164Z,10.04
2022-10-05T18:46:02.586Z,9.96
2022-10-05T18:48:29.504Z,9.88
2022-10-05T18:51:00.298Z,9.77
2022-10-05T18:53:41.094Z,9.77
2022-10-05T18:56:10.525Z,9.78
2022-10-05T18:58:51.073Z,9.76
2022-10-05T19:01:33.006Z,9.75
2022-10-05T19:04:14.897Z,9.76
2022-10-05T19:06:53.579Z,9.75
2022-10-05T19:09:19.945Z,9.73
2022-10-05T19:11:52.771Z,9.72
2022-10-05T19:14:34.176Z,9.73
2022-10-05T19:17:03.851Z,9.72
2022-10-05T19:19:45.744Z,9.71
2022-10-05T19:22:22.738Z,9.68
2022-10-05T19:25:13.728Z,9.69
2022-10-05T19:28:02.369Z,9.67
2022-10-05T19:30:35.242Z,9.64
2022-10-05T19:33:07.521Z,9.61
2022-10-05T19:35:40.005Z,9.59
2022-10-05T19:38:20.294Z,9.59
2022-10-05T19:40:56.818Z,9.57
2022-10-05T19:43:26.380Z,9.52
2022-10-05T19:45:58.331Z,9.45
2022-10-05T19:48:40.489Z,9.39
2022-10-05T19:51:12.398Z,9.33
2022-10-05T19:53:45.828Z,9.31
2022-10-05T19:56:20.474Z,9.35
2022-10-05T19:58:47.577Z,9.35
2022-10-05T20:01:24.093Z,9.34
2022-10-05T20:03:51.394Z,9.30
2022-10-05T20:06:19.246Z,9.32
2022-10-05T20:08:47.288Z,9.32
2022-10-05T20:11:14.814Z,9.29
2022-10-05T20:14:09.442Z,9.27
2022-10-05T20:16:54.627Z,9.23
2022-10-05T20:19:45.642Z,9.22
2022-10-05T20:22:30.653Z,9.21
2022-10-05T20:24:58.372Z,9.16
2022-10-05T20:27:37.195Z,9.14
2022-10-05T20:30:04.209Z,9.15
2022-10-05T20:32:30.977Z,9.16
2022-10-05T20:34:57.440Z,9.17
2022-10-05T20:37:24.051Z,9.16
2022-10-05T20:39:53.602Z,9.19
2022-10-05T20:42:20.683Z,9.18
2022-10-05T20:44:47.133Z,9.18
2022-10-05T20:47:13.836Z,9.18
2022-10-05T20:49:44.549Z,9.15
2022-10-05T20:52:11.711Z,9.16
2022-10-05T20:54:39.002Z,9.13
2022-10-05T20:57:06.222Z,9.10
2022-10-05T20:59:32.669Z,9.11
2022-10-05T21:01:59.217Z,9.13
2022-10-05T21:04:30.097Z,9.16
2022-10-05T21:07:02.494Z,9.16
2022-10-05T21:09:29.198Z,9.18
2022-10-05T21:11:56.152Z,9.17
2022-10-05T21:14:28.138Z,9.11
2022-10-05T21:16:54.505Z,9.10
2022-10-05T21:19:20.862Z,9.08
2022-10-05T21:21:47.455Z,9.07
2022-10-05T21:24:14.438Z,9.05
2022-10-05T21:26:41.743Z,9.03
2022-10-05T21:29:12.284Z,8.97
2022-10-05T21:31:39.810Z,9.00
2022-10-05T21:34:06.355Z,9.00
2022-10-05T21:36:32.907Z,9.01
2022-10-05T21:38:59.356Z,9.04
2022-10-05T21:41:25.730Z,9.07
2022-10-05T21:43:52.119Z,9.09
2022-10-05T21:46:20.556Z,9.10
2022-10-05T21:48:47.881Z,9.08
2022-10-05T21:51:16.623Z,9.03
2022-10-05T21:53:46.168Z,8.97
2022-10-05T21:56:15.233Z,8.93
2022-10-05T21:58:44.030Z,8.91
2022-10-05T22:01:10.966Z,8.90
2022-10-05T22:03:37.740Z,8.86
2022-10-05T22:06:04.771Z,8.84
2022-10-05T22:08:32.509Z,8.83
2022-10-05T22:11:00.166Z,8.80
2022-10-05T22:13:27.390Z,8.80
2022-10-05T22:15:56.196Z,8.80
2022-10-05T22:18:23.515Z,8.78
2022-10-05T22:20:50.007Z,8.78
2022-10-05T22:23:16.384Z,8.76
2022-10-05T22:25:42.929Z,8.75
2022-10-05T22:28:11.084Z,8.72
2022-10-05T22:30:37.981Z,8.71
2022-10-05T22:33:04.401Z,8.68
2022-10-05T22:35:32.353Z,8.63
2022-10-05T22:37:58.756Z,8.59
2022-10-05T22:40:25.203Z,8.58
2022-10-05T22:42:53.176Z,8.55
2022-10-05T22:45:19.534Z,8.52
2022-10-05T22:47:45.902Z,8.50
2022-10-05T22:50:12.276Z,8.43
2022-10-05T22:52:38.668Z,8.39
2022-10-05T22:55:05.453Z,8.37
2022-10-05T22:57:41.455Z,8.32
2022-10-05T23:00:08.813Z,8.26
2022-10-05T23:02:38.836Z,8.20
2022-10-05T23:05:05.838Z,8.18
2022-10-05T23:07:35.756Z,8.13
2022-10-05T23:10:02.457Z,8.12
2022-10-05T23:12:28.897Z,8.11
2022-10-05T23:14:55.255Z,8.08
2022-10-05T23:17:21.762Z,8.03
2022-10-05T23:19:48.132Z,8.01
2022-10-05T23:22:14.493Z,7.99
2022-10-05T23:24:40.880Z,7.98
2022-10-05T23:27:07.237Z,7.94
2022-10-05T23:29:33.690Z,7.93
2022-10-05T23:32:00.093Z,7.90
2022-10-05T23:34:27.326Z,7.90
2022-10-05T23:36:53.705Z,7.89
2022-10-05T23:39:20.178Z,7.89
2022-10-05T23:41:46.587Z,7.88
2022-10-05T23:44:12.975Z,7.89
2022-10-05T23:46:39.353Z,7.90
2022-10-05T23:49:05.782Z,7.91
2022-10-05T23:51:32.305Z,7.93
2022-10-05T23:53:58.766Z,7.90
2022-10-05T23:56:25.173Z,7.90
2022-10-05T23:58:51.639Z,7.91
